Skip to main content
NYSE:MSGE

Madison Square Garden Entertainment Institutional Ownership

$88.99
+3.96 (+4.66 %)
(As of 05/14/2021 12:00 AM ET)
Add
Compare
Today's Range
$85.40
$89.50
50-Day Range
$81.80
$93.94
52-Week Range
$63.55
$121.42
Volume216,681 shs
Average Volume277,013 shs
Market Capitalization$2.15 billion
P/E RatioN/A
Dividend YieldN/A
BetaN/A

Institutional Ownership

Institutional Ownership Changes (13F Filings) for Madison Square Garden Entertainment (NYSE:MSGE)

Institutional Ownership Percentage: 68.78%

Institutional Buying and Selling by Quarter


Madison Square Garden Entertainment (NYSE MSGE) Institutional Buying and Selling

Reporting DateHedge FundShares HeldMarket Value% of PortfolioQuarterly Change in SharesOwnership in Company
5/14/2021Westwood Holdings Group Inc.188,813$15.45M0.2%+27.4%0.782%
5/14/2021Gamco Investors INC. ET AL633,676$51.84M0.5%+1.9%2.624%
5/14/2021Gabelli Funds LLC424,050$34.69M0.2%+5.4%1.756%
5/14/2021Markston International LLC37,982$3.11M0.3%-0.6%0.157%
5/14/2021Arrowstreet Capital Limited Partnership43,331$3.54M0.0%-58.4%0.179%
5/14/2021Public Employees Retirement System of Ohio10,309$0.84M0.0%+8.8%0.043%
5/14/2021Dimensional Fund Advisors LP316,219$25.87M0.0%+44.5%1.310%
5/14/2021Highlander Capital Management LLC2,525$0.21M0.1%N/A0.010%
5/14/2021UBS Asset Management Americas Inc.442,412$36.19M0.0%-28.2%1.832%
5/14/2021K.J. Harrison & Partners Inc10,510$0.86M0.1%N/A0.044%
5/14/2021Dynamic Technology Lab Private Ltd4,141$0.34M0.0%N/A0.017%
5/14/2021Credit Suisse AG23,009$1.88M0.0%+51.3%0.095%
5/14/2021Primecap Management Co. CA215,873$17.66M0.0%+5.5%0.894%
5/13/2021Clearbridge Investments LLC919,376$75.21M0.1%0.0%3.807%
5/13/2021Wexford Capital LP10,039$0.82M0.1%N/A0.042%
5/13/2021Matthew 25 Management Corp45,500$3.72M1.1%+71.7%0.188%
5/13/2021GM Advisory Group Inc.3,645$0.30M0.0%+28.1%0.015%
5/13/2021Bank of New York Mellon Corp97,417$7.97M0.0%+14.3%0.403%
5/13/2021Citigroup Inc.29,561$2.42M0.0%+17.6%0.122%
5/13/2021Pacific Global Investment Management CO53,765$4.40M0.9%+12.1%0.223%
5/13/2021Allianz Asset Management GmbH6,336$0.52M0.0%-9.7%0.026%
5/12/2021Northern Trust Corp102,734$8.40M0.0%+6.8%0.425%
5/12/2021Geode Capital Management LLC226,296$18.51M0.0%-2.3%0.937%
5/12/2021Advisors Capital Management LLC6,435$0.53M0.0%+75.4%0.027%
5/12/2021Weik Capital Management6,028$0.49M0.2%-4.0%0.025%
5/12/2021JPMorgan Chase & Co.6,863$0.56M0.0%+55.3%0.028%
5/12/2021Panagora Asset Management Inc.2,781$0.23M0.0%+107.1%0.012%
5/12/2021Sei Investments Co.8,051$0.80M0.0%+10.6%0.033%
5/12/2021River Road Asset Management LLC5,282$0.43M0.0%-69.9%0.022%
5/12/2021UBS Group AG25,999$2.13M0.0%-23.5%0.108%
5/11/2021Horizon Kinetics Asset Management LLC38,976$3.19M0.1%+7.1%0.161%
5/11/2021Nissay Asset Management Corp Japan ADV8,538$0.70M0.0%+26.0%0.035%
5/11/2021New York State Common Retirement Fund127,771$10.45M0.0%+31.4%0.529%
5/11/2021Poehling Capital Management LLC3,576$0.29M0.1%N/A0.015%
5/11/2021Boussard & Gavaudan Investment Management LLP22,910$1.89M0.2%N/A0.095%
5/11/2021Lord Abbett & CO. LLC113,988$9.32M0.0%N/A0.472%
5/10/2021Russell Investments Group Ltd.102,299$8.37M0.0%-7.2%0.424%
5/10/2021Systematic Financial Management LP106,100$8.68M0.3%+28.5%0.439%
5/10/2021HighTower Advisors LLC10,777$0.88M0.0%+104.2%0.045%
5/10/2021State Board of Administration of Florida Retirement System23,568$1.93M0.0%-3.7%0.098%
5/10/2021Gamble Jones Investment Counsel5,293$0.43M0.0%-83.2%0.022%
5/7/2021BlackRock Inc.813,019$66.51M0.0%+9.5%3.367%
5/7/2021Cambridge Investment Research Advisors Inc.6,448$0.53M0.0%N/A0.027%
5/7/2021Brasada Capital Management LP4,000$0.33M0.1%+14.3%0.017%
5/7/2021Thompson Siegel & Walmsley LLC210,546$17.22M0.2%-26.5%0.872%
5/7/2021Swiss National Bank35,833$2.93M0.0%+1.4%0.148%
5/7/2021The PNC Financial Services Group Inc.3,844$0.31M0.0%+57.7%0.016%
5/6/2021Rhumbline Advisers21,999$1.80M0.0%-2.2%0.091%
5/6/2021Fernwood Investment Management LLC16,090$1.32M0.5%+1.1%0.067%
5/5/2021Commerce Bank4,379$0.36M0.0%+4.7%0.018%
5/4/2021Envestnet Asset Management Inc.12,481$1.02M0.0%+234.5%0.052%
5/4/2021Commonwealth Equity Services LLC6,384$0.52M0.0%+14.3%0.026%
5/4/2021Migdal Insurance & Financial Holdings Ltd.893$73K0.0%+29.2%0.004%
5/4/2021Boyar Asset Management Inc.24,864$2.03M1.4%-0.9%0.103%
5/3/2021The Manufacturers Life Insurance Company 206,204$16.87M0.0%+0.2%0.854%
5/3/2021Zurcher Kantonalbank Zurich Cantonalbank 4,415$0.36M0.0%+145.3%0.018%
4/29/2021Handelsbanken Fonder AB3,400$0.28M0.0%N/A0.014%
4/28/2021US Bancorp DE575$46K0.0%-25.4%0.002%
4/28/2021Minneapolis Portfolio Management Group LLC188,337$15.41M1.7%+1,181.2%0.780%
4/27/2021Janney Montgomery Scott LLC11,510$0.94M0.0%+118.6%0.048%
4/27/2021AE Wealth Management LLC11,051$0.90M0.0%N/A0.046%
4/26/2021Wedbush Securities Inc.3,605$0.30M0.0%N/A0.015%
4/26/2021Cornerstone Wealth Group LLC15,457$1.33M0.3%N/A0.064%
4/26/2021Radnor Capital Management LLC2,455$0.20M0.1%N/A0.010%
4/26/2021GWM Advisors LLC4,645$0.38M0.0%N/A0.019%
4/23/2021Parallel Advisors LLC1,713$0.14M0.0%+22.9%0.007%
4/23/2021Strs Ohio12,698$1.04M0.0%N/A0.053%
4/22/2021James Investment Research Inc.868$71K0.0%N/A0.004%
4/22/2021Private Advisor Group LLC26,950$2.21M0.0%+78.2%0.112%
4/20/2021Eidelman Virant Capital23,123$1.93M0.8%N/A0.096%
4/19/2021North Star Investment Management Corp.13,625$1.12M0.1%+556.6%0.056%
4/15/2021Mcdonald Partners LLC5,244$0.43M0.1%-4.5%0.022%
4/14/2021AdvisorNet Financial Inc1,158$95K0.0%+632.9%0.005%
4/14/2021First Bank & Trust1,520$0.12M0.1%+22.5%0.006%
4/13/2021Norman Fields Gottscho Capital Management LLC1,670$0.30M0.1%-90.4%0.007%
4/12/2021Vanguard Capital Wealth Advisors3,016$0.27M0.2%N/A0.012%
4/12/2021Veracity Capital LLC2,800$0.23M0.1%N/A0.012%
4/12/2021Valeo Financial Advisors LLC517$42K0.0%+2,941.2%0.002%
4/12/2021Private Capital Group LLC365$30K0.0%+121.2%0.002%
3/8/2021Dimensional Fund Advisors LP218,911$22.99M0.0%+27.2%0.907%
3/3/2021Channing Capital Management LLC357,038$37.50M1.5%N/A1.479%
3/2/2021Norges Bank246,145$25.86M0.0%N/A1.019%
3/1/2021UBS Asset Management Americas Inc.615,812$64.69M0.0%-7.1%2.550%
2/25/2021Dimensional Fund Advisors LP218,911$22.99M0.0%+27.2%0.907%
2/19/2021JPMorgan Chase & Co.4,419$0.46M0.0%-93.9%0.018%
2/18/2021Truist Financial Corp4,390$0.46M0.0%-3.8%0.018%
2/17/2021Tiger Eye Capital LLC2,190$0.23M0.0%N/A0.009%
2/16/2021MARSHALL WACE ASIA Ltd817,397$85.86M1.5%-8.4%3.402%
2/16/2021Mcdonald Partners LLC5,489$0.58M0.2%N/A0.023%
2/16/2021Morgan Stanley67,243$7.06M0.0%+147.6%0.280%
2/16/2021Advisors Capital Management LLC3,668$0.39M0.0%+24.3%0.015%
2/16/2021Paloma Partners Management Co5,045$0.53M0.0%N/A0.021%
2/16/2021Nuveen Asset Management LLC63,764$6.70M0.0%+1.2%0.265%
2/16/2021Price T Rowe Associates Inc. MD344,641$36.20M0.0%+3,458.5%1.435%
2/16/2021Corsair Capital Management L.P.2,818$0.30M0.1%-5.6%0.012%
2/16/2021Charles Schwab Investment Management Inc.105,148$11.05M0.0%+0.9%0.438%
2/13/2021Ancora Advisors LLC111,665$11.73M0.4%+137.7%0.465%
2/12/2021Stifel Financial Corp25,579$2.69M0.0%+1.1%0.106%
2/12/2021Sentinel Trust Co. LBA2,859$0.30M0.1%N/A0.012%
2/12/2021LPL Financial LLC3,596$0.38M0.0%N/A0.015%
(Data available from 1/1/2016 forward)

This page was last updated on 5/15/2021 by MarketBeat.com Staff
MarketBeat - Stock Market News and Research Tools logo

MarketBeat empowers individual investors to make better trading decisions by providing real-time financial data and objective market analysis. Whether you’re looking for analyst ratings, corporate buybacks, dividends, earnings, economic reports, financials, insider trades, IPOs, SEC filings or stock splits, MarketBeat has the objective information you need to analyze any stock. Learn more about MarketBeat.

MarketBeat is accredited by the Better Business Bureau

© American Consumer News, LLC dba MarketBeat® 2010-2021. All rights reserved.
326 E 8th St #105, Sioux Falls, SD 57103 | U.S. Based Support Team at [email protected] | (844) 978-6257
MarketBeat does not provide personalized financial advice and does not issue recommendations or offers to buy stock or sell any security.

Our Accessibility Statement | Terms of Service | Do Not Sell My Information

© 2021 Market data provided is at least 10-minutes delayed and hosted by Barchart Solutions. Information is provided 'as-is' and solely for informational purposes, not for trading purposes or advice, and is delayed. To see all exchange delays and terms of use please see disclaimer. Fundamental company data provided by Zacks Investment Research. As a bonus to opt-ing into our email newsletters, you will also get a free subscription to the Liberty Through Wealth e-newsletter. You can opt out at any time.